createdAt,value
2023-02-22T00:02:11.231Z,101459.28
2023-02-22T00:06:17.210Z,101443.91
2023-02-22T00:10:22.013Z,101456.81
2023-02-22T00:14:26.491Z,101444.50
2023-02-22T00:18:29.759Z,101446.16
2023-02-22T00:22:31.468Z,101429.97
2023-02-22T00:26:33.952Z,101430.81
2023-02-22T00:30:36.580Z,101422.53
2023-02-22T00:34:38.504Z,101431.25
2023-02-22T00:38:41.397Z,101421.28
2023-02-22T00:42:43.316Z,101422.16
2023-02-22T00:46:45.229Z,101425.69
2023-02-22T00:50:48.681Z,101418.41
2023-02-22T00:54:50.460Z,101413.84
2023-02-22T00:58:52.186Z,101418.19
2023-02-22T01:02:56.084Z,101416.31
2023-02-22T01:07:00.590Z,101410.94
2023-02-22T01:11:02.528Z,101415.50
2023-02-22T01:15:06.045Z,101403.69
2023-02-22T01:19:07.750Z,101411.78
2023-02-22T01:23:10.755Z,101404.50
2023-02-22T01:27:12.757Z,101399.94
2023-02-22T01:31:14.830Z,101396.59
2023-02-22T01:35:25.534Z,101397.63
2023-02-22T01:39:27.725Z,101385.78
2023-02-22T01:43:31.224Z,101387.47
2023-02-22T01:47:32.948Z,101387.47
2023-02-22T01:51:39.325Z,101379.38
2023-02-22T01:55:42.009Z,101376.69
2023-02-22T01:59:48.249Z,101378.34
2023-02-22T02:03:52.031Z,101378.13
2023-02-22T02:07:54.319Z,101369.19
2023-02-22T02:12:00.890Z,101365.47
2023-02-22T02:16:02.673Z,101351.97
2023-02-22T02:20:14.861Z,101350.50
2023-02-22T02:24:44.742Z,101347.53
2023-02-22T02:29:19.828Z,101348.16
2023-02-22T02:33:46.456Z,101341.47
2023-02-22T02:38:05.447Z,101340.19
2023-02-22T02:42:12.673Z,101330.81
2023-02-22T02:46:40.194Z,101325.00
2023-02-22T02:50:48.048Z,101319.16
2023-02-22T02:54:50.944Z,101311.22
2023-02-22T02:58:53.874Z,101319.53
2023-02-22T03:03:02.505Z,101305.41
2023-02-22T03:07:23.288Z,101293.75
2023-02-22T03:11:48.630Z,101288.78
2023-02-22T03:16:07.444Z,101282.53
2023-02-22T03:20:32.037Z,101282.72
2023-02-22T03:25:10.301Z,101273.97
2023-02-22T03:29:17.994Z,101269.63
2023-02-22T03:33:44.987Z,101260.91
2023-02-22T03:37:50.742Z,101259.22
2023-02-22T03:41:54.477Z,101247.59
2023-02-22T03:46:00.875Z,101242.19
2023-02-22T03:50:13.964Z,101244.28
2023-02-22T03:54:17.319Z,101235.53
2023-02-22T03:58:24.195Z,101226.41
2023-02-22T04:02:26.620Z,101226.59
2023-02-22T04:06:29.488Z,101215.16
2023-02-22T04:10:33.566Z,101211.63
2023-02-22T04:14:35.965Z,101208.09
2023-02-22T04:18:37.750Z,101208.09
2023-02-22T04:22:41.450Z,101209.31
2023-02-22T04:26:43.781Z,101199.56
2023-02-22T04:30:46.545Z,101196.06
2023-02-22T04:34:50.469Z,101186.28
2023-02-22T04:38:52.341Z,101181.06
2023-02-22T04:42:54.228Z,101186.44
2023-02-22T04:46:56.760Z,101174.00
2023-02-22T04:50:58.679Z,101173.16
2023-02-22T04:55:02.807Z,101183.13
2023-02-22T04:59:07.178Z,101169.00
2023-02-22T05:03:09.204Z,101169.00
2023-02-22T05:07:11.392Z,101156.53
2023-02-22T05:11:13.309Z,101160.28
2023-02-22T05:15:18.601Z,101152.19
2023-02-22T05:19:20.361Z,101146.97
2023-02-22T05:23:22.061Z,101146.16
2023-02-22T05:27:23.731Z,101156.09
2023-02-22T05:31:25.529Z,101152.56
2023-02-22T05:35:29.591Z,101147.19
2023-02-22T05:39:31.769Z,101149.06
2023-02-22T05:43:33.767Z,101124.78
2023-02-22T05:47:35.646Z,101132.88
2023-02-22T05:51:37.390Z,101141.13
2023-02-22T05:55:39.130Z,101134.09
2023-02-22T05:59:41.052Z,101135.13
2023-02-22T06:03:42.809Z,101136.16
2023-02-22T06:07:44.495Z,101119.97
2023-02-22T06:11:46.232Z,101115.59
2023-02-22T06:15:47.968Z,101118.28
2023-02-22T06:19:49.685Z,101108.34
2023-02-22T06:23:51.554Z,101095.88
2023-02-22T06:27:53.520Z,101097.75
2023-02-22T06:31:55.683Z,101096.09
2023-02-22T06:35:57.490Z,101093.59
2023-02-22T06:40:04.830Z,101091.72
2023-02-22T06:44:07.148Z,101091.09
2023-02-22T06:48:09.412Z,101096.50
2023-02-22T06:52:11.149Z,101097.31
2023-02-22T06:56:12.987Z,101104.78
2023-02-22T07:00:19.736Z,101116.41
2023-02-22T07:04:21.958Z,101113.06
2023-02-22T07:08:23.665Z,101104.97
2023-02-22T07:12:25.348Z,101088.78
2023-02-22T07:16:27.054Z,101096.25
2023-02-22T07:20:31.118Z,101114.94
2023-02-22T07:24:35.186Z,101112.44
2023-02-22T07:28:36.951Z,101125.94
2023-02-22T07:32:38.749Z,101118.00
2023-02-22T07:36:40.623Z,101109.09
2023-02-22T07:40:43.062Z,101106.41
2023-02-22T07:44:44.777Z,101111.16
2023-02-22T07:48:46.522Z,101107.63
2023-02-22T07:52:49.901Z,101116.53
2023-02-22T07:56:51.590Z,101109.47
2023-02-22T08:00:53.533Z,101117.56
2023-02-22T08:04:55.252Z,101117.56
2023-02-22T08:08:56.967Z,101125.66
2023-02-22T08:12:59.189Z,101117.78
2023-02-22T08:17:00.961Z,101109.69
2023-02-22T08:21:02.721Z,101111.56
2023-02-22T08:25:04.692Z,101098.25
2023-02-22T08:29:06.622Z,101101.78
2023-02-22T08:33:08.658Z,101088.31
2023-02-22T08:37:10.565Z,101083.94
2023-02-22T08:41:12.347Z,101075.03
2023-02-22T08:45:14.372Z,101075.88
2023-02-22T08:49:16.095Z,101080.44
2023-02-22T08:53:18.052Z,101076.91
2023-02-22T08:57:21.663Z,101070.69
2023-02-22T09:01:33.354Z,101059.91
2023-02-22T09:05:35.461Z,101056.38
2023-02-22T09:09:37.271Z,101054.69
2023-02-22T09:13:39.082Z,101052.00
2023-02-22T09:17:40.969Z,101043.91
2023-02-22T09:21:42.724Z,101031.47
2023-02-22T09:25:44.478Z,101035.00
2023-02-22T09:29:48.996Z,101037.06
2023-02-22T09:33:50.730Z,101042.25
2023-02-22T09:37:57.559Z,101040.59
2023-02-22T09:42:21.085Z,101054.06
2023-02-22T09:46:29.687Z,101049.69
2023-02-22T09:50:37.378Z,101061.31
2023-02-22T09:54:39.058Z,101071.25
2023-02-22T09:58:45.998Z,101084.72
2023-02-22T10:03:03.581Z,101068.56
2023-02-22T10:07:18.413Z,101068.56
2023-02-22T10:11:28.434Z,101054.25
2023-02-22T10:15:43.113Z,101042.63
2023-02-22T10:20:18.977Z,101032.88
2023-02-22T10:24:39.790Z,101031.03
2023-02-22T10:28:56.071Z,101036.63
2023-02-22T10:33:12.929Z,101056.31
2023-02-22T10:37:27.379Z,101066.28
2023-02-22T10:41:29.138Z,101064.41
2023-02-22T10:45:33.721Z,101066.28
2023-02-22T10:49:43.424Z,101050.09
2023-02-22T10:53:56.334Z,101055.50
2023-02-22T10:58:06.883Z,101050.09
2023-02-22T11:02:17.975Z,101037.63
2023-02-22T11:06:20.456Z,101037.63
2023-02-22T11:10:32.049Z,101030.38
2023-02-22T11:14:34.122Z,101033.06
2023-02-22T11:18:36.078Z,101026.84
2023-02-22T11:22:42.203Z,101020.63
2023-02-22T11:26:50.333Z,101006.31
2023-02-22T11:30:52.286Z,101003.63
2023-02-22T11:35:29.928Z,101005.28
2023-02-22T11:39:35.612Z,101006.97
2023-02-22T11:43:37.736Z,101002.41
2023-02-22T11:48:02.775Z,101001.16
2023-02-22T11:52:27.168Z,100990.19
2023-02-22T11:56:40.664Z,100987.09
2023-02-22T12:00:55.631Z,100989.19
2023-02-22T12:05:08.147Z,100983.19
2023-02-22T12:09:43.503Z,100977.19
2023-02-22T12:13:48.204Z,100975.53
2023-02-22T12:18:07.854Z,100970.16
2023-02-22T12:22:26.987Z,100964.75
2023-02-22T12:26:34.928Z,100966.41
2023-02-22T12:30:41.335Z,100958.97
2023-02-22T12:34:48.848Z,100962.69
2023-02-22T12:39:00.566Z,100961.88
2023-02-22T12:43:27.626Z,100970.97
2023-02-22T12:47:37.509Z,100967.66
2023-02-22T12:51:45.384Z,100970.53
2023-02-22T12:56:00.363Z,100971.59
2023-02-22T13:00:28.052Z,100972.63
2023-02-22T13:04:32.147Z,100965.53
2023-02-22T13:08:42.074Z,100967.41
2023-02-22T13:13:04.919Z,100969.28
2023-02-22T13:17:24.352Z,100977.38
2023-02-22T13:21:34.766Z,100969.50
2023-02-22T13:25:42.421Z,100960.56
2023-02-22T13:29:50.277Z,100959.75
2023-02-22T13:34:04.122Z,100958.91
2023-02-22T13:38:36.844Z,100963.47
2023-02-22T13:43:11.548Z,100963.47
2023-02-22T13:47:28.174Z,100957.25
2023-02-22T13:51:47.967Z,100960.97
2023-02-22T13:55:56.728Z,100961.81
2023-02-22T14:00:21.011Z,100973.63
2023-02-22T14:04:40.380Z,100969.06
2023-02-22T14:08:42.780Z,100966.38
2023-02-22T14:12:48.563Z,100963.03
2023-02-22T14:17:16.953Z,100971.13
2023-02-22T14:21:23.013Z,100963.03
2023-02-22T14:25:33.866Z,100968.41
2023-02-22T14:29:35.734Z,100982.94
2023-02-22T14:33:55.813Z,100971.31
2023-02-22T14:38:00.439Z,100977.53
2023-02-22T14:42:12.628Z,100969.66
2023-02-22T14:46:27.986Z,100970.50
2023-02-22T14:50:45.977Z,100983.97
2023-02-22T14:55:04.844Z,100979.59
2023-02-22T14:59:27.077Z,100977.94
2023-02-22T15:03:37.555Z,100977.94
2023-02-22T15:07:39.401Z,100983.34
2023-02-22T15:11:41.381Z,100996.81
2023-02-22T15:15:49.779Z,101000.53
2023-02-22T15:19:52.777Z,101003.25
2023-02-22T15:24:08.174Z,101003.25
2023-02-22T15:28:14.639Z,101009.66
2023-02-22T15:32:29.469Z,101006.97
2023-02-22T15:36:31.358Z,101005.28
2023-02-22T15:40:34.854Z,100999.91
2023-02-22T15:44:40.300Z,101003.63
2023-02-22T15:48:42.061Z,101017.09
2023-02-22T15:52:58.372Z,101020.63
2023-02-22T15:57:00.222Z,101014.41
2023-02-22T16:01:07.856Z,101020.84
2023-02-22T16:05:13.344Z,101027.28
2023-02-22T16:09:18.916Z,101021.88
2023-02-22T16:13:31.427Z,101025.59
2023-02-22T16:17:49.275Z,101023.72
2023-02-22T16:21:58.479Z,101021.88
2023-02-22T16:26:25.324Z,101023.94
2023-02-22T16:30:39.600Z,101023.94
2023-02-22T16:34:41.536Z,101034.72
2023-02-22T16:38:48.440Z,101036.38
2023-02-22T16:42:52.539Z,101034.50
2023-02-22T16:46:57.751Z,101034.31
2023-02-22T16:51:24.498Z,101022.50
2023-02-22T16:55:26.836Z,101028.53
2023-02-22T16:59:36.434Z,101038.91
2023-02-22T17:03:38.577Z,101034.38
2023-02-22T17:07:40.654Z,101036.63
2023-02-22T17:11:43.815Z,101037.28
2023-02-22T17:15:45.527Z,101046.84
2023-02-22T17:19:47.288Z,101060.94
2023-02-22T17:23:49.102Z,101065.94
2023-02-22T17:27:50.859Z,101067.59
2023-02-22T17:31:52.943Z,101059.91
2023-02-22T17:35:59.197Z,101067.00
2023-02-22T17:40:01.015Z,101068.66
2023-02-22T17:44:03.604Z,101072.19
2023-02-22T17:48:05.777Z,101079.22
2023-02-22T17:52:07.731Z,101076.34
2023-02-22T17:56:13.479Z,101083.41
2023-02-22T18:00:23.422Z,101090.88
2023-02-22T18:04:25.314Z,101083.41
2023-02-22T18:08:29.939Z,101086.31
2023-02-22T18:12:32.585Z,101098.75
2023-02-22T18:16:34.484Z,101093.34
2023-02-22T18:20:38.977Z,101096.06
2023-02-22T18:24:40.724Z,101102.28
2023-02-22T18:28:43.056Z,101097.91
2023-02-22T18:32:46.203Z,101106.63
2023-02-22T18:36:48.764Z,101108.50
2023-02-22T18:41:02.410Z,101106.63
2023-02-22T18:45:05.649Z,101104.97
2023-02-22T18:49:07.386Z,101101.25
2023-02-22T18:53:09.186Z,101112.03
2023-02-22T18:57:12.835Z,101112.03
2023-02-22T19:01:17.659Z,101106.63
2023-02-22T19:05:19.543Z,101105.81
2023-02-22T19:09:21.339Z,101112.03
2023-02-22T19:13:23.083Z,101102.09
2023-02-22T19:17:25.701Z,101104.97
2023-02-22T19:21:29.045Z,101104.97
2023-02-22T19:25:40.475Z,101112.03
2023-02-22T19:29:42.361Z,101110.38
2023-02-22T19:33:45.294Z,101112.03
2023-02-22T19:37:48.183Z,101112.03
2023-02-22T19:41:50.973Z,101118.28
2023-02-22T19:45:52.737Z,101112.88
2023-02-22T19:49:57.195Z,101129.91
2023-02-22T19:54:04.111Z,101129.06
2023-02-22T19:58:05.890Z,101129.91
2023-02-22T20:02:11.650Z,101135.28
2023-02-22T20:06:16.655Z,101139.84
2023-02-22T20:10:19.216Z,101148.78
2023-02-22T20:14:25.032Z,101146.06
2023-02-22T20:18:26.833Z,101150.63
2023-02-22T20:22:28.575Z,101153.34
2023-02-22T20:26:35.044Z,101139.84
2023-02-22T20:30:38.080Z,101144.38
2023-02-22T20:34:39.806Z,101143.38
2023-02-22T20:38:41.892Z,101144.38
2023-02-22T20:42:44.693Z,101153.50
2023-02-22T20:46:47.694Z,101141.69
2023-02-22T20:50:49.414Z,101144.38
2023-02-22T20:54:51.305Z,101144.38
2023-02-22T20:58:53.490Z,101144.38
2023-02-22T21:02:55.599Z,101145.25
2023-02-22T21:06:57.436Z,101149.78
2023-02-22T21:10:59.714Z,101138.16
2023-02-22T21:15:01.483Z,101146.06
2023-02-22T21:19:06.570Z,101144.38
2023-02-22T21:23:08.716Z,101142.53
2023-02-22T21:27:12.312Z,101144.38
2023-02-22T21:31:14.229Z,101143.56
2023-02-22T21:35:16.151Z,101155.16
2023-02-22T21:39:18.381Z,101158.50
2023-02-22T21:43:20.254Z,101166.22
2023-02-22T21:47:23.563Z,101167.66
2023-02-22T21:51:31.592Z,101166.44
2023-02-22T21:55:34.152Z,101164.41
2023-02-22T21:59:35.847Z,101167.72
2023-02-22T22:03:37.614Z,101174.78
2023-02-22T22:07:41.573Z,101175.44
2023-02-22T22:11:43.241Z,101161.94
2023-02-22T22:15:45.017Z,101165.28
2023-02-22T22:19:48.951Z,101158.84
2023-02-22T22:23:54.509Z,101154.06
2023-02-22T22:27:56.335Z,101147.84
2023-02-22T22:31:58.404Z,101150.41
2023-02-22T22:36:00.761Z,101146.66
2023-02-22T22:40:04.978Z,101153.72
2023-02-22T22:44:09.496Z,101149.34
2023-02-22T22:48:15.052Z,101157.44
2023-02-22T22:52:18.248Z,101159.09
2023-02-22T22:56:26.456Z,101166.16
2023-02-22T23:00:37.857Z,101161.63
2023-02-22T23:04:39.587Z,101154.16
2023-02-22T23:08:43.290Z,101171.16
2023-02-22T23:12:45.766Z,101174.69
2023-02-22T23:16:52.667Z,101170.78
2023-02-22T23:20:57.220Z,101171.59
2023-02-22T23:25:00.023Z,101167.03
2023-02-22T23:29:03.222Z,101157.09
2023-02-22T23:33:04.965Z,101168.72
2023-02-22T23:37:10.283Z,101165.00
2023-02-22T23:41:16.606Z,101172.03
2023-02-22T23:45:24.508Z,101176.41
2023-02-22T23:49:35.824Z,101184.50
2023-02-22T23:53:39.307Z,101184.50
2023-02-22T23:57:43.822Z,101180.78
